createdAt,value
2023-01-25T00:02:05.945Z,39.60
2023-01-25T00:04:53.854Z,35.10
2023-01-25T00:07:40.567Z,30.60
2023-01-25T00:10:27.426Z,29.90
2023-01-25T00:13:13.715Z,24.90
2023-01-25T00:16:05.473Z,25.00
2023-01-25T00:18:52.338Z,24.40
2023-01-25T00:21:39.835Z,23.30
2023-01-25T00:24:26.259Z,20.00
2023-01-25T00:27:12.887Z,18.80
2023-01-25T00:29:59.725Z,18.70
2023-01-25T00:32:59.074Z,19.20
2023-01-25T00:35:45.748Z,20.10
2023-01-25T00:38:34.891Z,20.40
2023-01-25T00:41:21.353Z,21.40
2023-01-25T00:44:08.462Z,21.40
2023-01-25T00:46:54.885Z,20.10
2023-01-25T00:49:43.089Z,19.80
2023-01-25T00:52:29.796Z,21.00
2023-01-25T00:55:16.700Z,19.70
2023-01-25T00:58:03.412Z,20.80
2023-01-25T01:00:52.536Z,21.20
2023-01-25T01:03:39.932Z,20.90
2023-01-25T01:06:26.727Z,21.40
2023-01-25T01:09:15.584Z,20.10
2023-01-25T01:12:01.996Z,22.00
2023-01-25T01:14:48.871Z,22.10
2023-01-25T01:17:35.518Z,22.00
2023-01-25T01:20:22.395Z,23.10
2023-01-25T01:23:09.278Z,23.70
2023-01-25T01:25:56.331Z,23.70
2023-01-25T01:28:43.755Z,24.60
2023-01-25T01:31:30.497Z,26.40
2023-01-25T01:34:17.022Z,27.10
2023-01-25T01:37:03.775Z,26.90
2023-01-25T01:39:52.251Z,25.80
2023-01-25T01:43:03.912Z,25.20
2023-01-25T01:46:00.336Z,24.60
2023-01-25T01:49:16.573Z,23.70
2023-01-25T01:52:11.704Z,23.90
2023-01-25T01:55:18.245Z,22.10
2023-01-25T01:58:07.794Z,23.00
2023-01-25T02:00:54.411Z,21.20
2023-01-25T02:03:41.857Z,21.20
2023-01-25T02:06:51.541Z,20.60
2023-01-25T02:09:38.377Z,20.80
2023-01-25T02:12:25.417Z,20.50
2023-01-25T02:15:12.575Z,22.00
2023-01-25T02:17:59.845Z,21.10
2023-01-25T02:20:50.592Z,20.60
2023-01-25T02:23:47.392Z,21.00
2023-01-25T02:26:33.870Z,20.80
2023-01-25T02:29:24.164Z,20.80
2023-01-25T02:32:10.945Z,20.50
2023-01-25T02:34:57.589Z,20.80
2023-01-25T02:37:44.509Z,20.90
2023-01-25T02:40:35.075Z,21.10
2023-01-25T02:43:24.934Z,20.50
2023-01-25T02:46:21.120Z,19.90
2023-01-25T02:49:09.248Z,22.00
2023-01-25T02:51:57.475Z,20.80
2023-01-25T02:54:44.509Z,19.60
2023-01-25T02:57:30.917Z,20.80
2023-01-25T03:00:17.826Z,17.80
2023-01-25T03:03:04.519Z,19.10
2023-01-25T03:05:51.245Z,20.00
2023-01-25T03:08:38.005Z,20.20
2023-01-25T03:11:24.790Z,20.50
2023-01-25T03:14:11.532Z,19.30
2023-01-25T03:16:58.330Z,19.20
2023-01-25T03:19:45.040Z,19.20
2023-01-25T03:22:32.158Z,19.50
2023-01-25T03:25:18.741Z,20.20
2023-01-25T03:28:05.548Z,20.30
2023-01-25T03:30:57.056Z,19.10
2023-01-25T03:33:43.663Z,19.90
2023-01-25T03:36:30.483Z,19.30
2023-01-25T03:39:17.157Z,19.10
2023-01-25T03:42:04.144Z,19.70
2023-01-25T03:44:50.478Z,19.50
2023-01-25T03:47:37.132Z,19.50
2023-01-25T03:50:23.813Z,20.20
2023-01-25T04:07:23.465Z,16.20
2023-01-25T04:10:10.253Z,19.20
2023-01-25T04:12:55.970Z,19.10
2023-01-25T04:15:41.086Z,17.80
2023-01-25T04:18:26.118Z,16.80
2023-01-25T04:21:11.618Z,17.60
2023-01-25T04:23:56.734Z,16.40
2023-01-25T04:26:42.200Z,15.80
2023-01-25T04:29:40.124Z,15.80
2023-01-25T04:32:26.657Z,15.20
2023-01-25T04:35:12.486Z,15.10
2023-01-25T04:37:59.153Z,15.40
2023-01-25T04:40:45.121Z,14.30
2023-01-25T04:43:30.576Z,13.30
2023-01-25T04:46:15.975Z,14.50
2023-01-25T04:49:01.590Z,12.60
2023-01-25T04:51:46.941Z,12.50
2023-01-25T04:54:32.164Z,12.80
2023-01-25T04:57:17.838Z,12.10
2023-01-25T05:00:03.599Z,12.20
2023-01-25T05:02:49.338Z,12.30
2023-01-25T05:05:34.589Z,11.90
2023-01-25T05:08:19.985Z,11.60
2023-01-25T05:11:05.232Z,20.10
2023-01-25T05:13:51.437Z,23.80
2023-01-25T05:16:36.810Z,27.50
2023-01-25T05:19:57.990Z,24.80
2023-01-25T05:22:43.447Z,28.90
2023-01-25T05:25:48.226Z,30.40
2023-01-25T05:28:33.391Z,30.40
2023-01-25T05:31:18.800Z,33.40
2023-01-25T05:34:04.418Z,32.10
2023-01-25T05:36:49.933Z,34.60
2023-01-25T05:39:35.437Z,33.70
2023-01-25T05:42:20.464Z,35.30
2023-01-25T05:45:06.910Z,35.60
2023-01-25T05:47:53.751Z,38.40
2023-01-25T05:50:39.205Z,37.80
2023-01-25T05:53:28.164Z,39.00
2023-01-25T05:56:13.408Z,40.00
2023-01-25T05:59:00.502Z,39.90
2023-01-25T06:01:46.335Z,40.60
2023-01-25T06:04:31.791Z,40.00
2023-01-25T06:07:18.205Z,41.40
2023-01-25T06:10:04.407Z,43.70
2023-01-25T06:12:49.590Z,44.70
2023-01-25T06:15:34.983Z,47.40
2023-01-25T06:18:20.358Z,51.20
2023-01-25T06:21:05.901Z,50.40
2023-01-25T06:23:51.345Z,47.70
2023-01-25T06:34:08.108Z,44.70
2023-01-25T06:36:54.607Z,47.60
2023-01-25T06:39:41.500Z,47.30
2023-01-25T06:42:28.034Z,46.60
2023-01-25T06:45:14.594Z,48.20
2023-01-25T06:48:01.652Z,50.20
2023-01-25T06:50:54.146Z,51.50
2023-01-25T06:53:43.509Z,50.10
2023-01-25T06:56:30.530Z,47.80
2023-01-25T06:59:17.528Z,50.10
2023-01-25T07:02:04.401Z,50.40
2023-01-25T07:04:51.022Z,48.70
2023-01-25T07:07:37.446Z,48.70
2023-01-25T07:10:24.341Z,50.00
2023-01-25T07:13:10.866Z,48.30
2023-01-25T07:16:01.178Z,49.60
2023-01-25T07:18:48.237Z,49.60
2023-01-25T07:21:35.491Z,51.70
2023-01-25T07:24:27.036Z,51.40
2023-01-25T07:27:13.735Z,52.50
2023-01-25T07:30:00.535Z,51.20
2023-01-25T07:32:47.270Z,55.00
2023-01-25T07:35:33.984Z,51.70
2023-01-25T07:38:20.756Z,52.50
2023-01-25T07:41:10.654Z,50.00
2023-01-25T07:43:57.074Z,51.40
2023-01-25T07:46:43.778Z,50.30
2023-01-25T07:49:30.655Z,50.00
2023-01-25T07:52:17.452Z,54.50
2023-01-25T07:55:05.346Z,46.70
2023-01-25T07:57:58.583Z,42.70
2023-01-25T08:00:45.415Z,47.80
2023-01-25T08:03:32.061Z,45.20
2023-01-25T08:06:27.413Z,39.10
2023-01-25T08:09:20.025Z,38.00
2023-01-25T08:12:08.753Z,36.30
2023-01-25T08:14:55.448Z,37.70
2023-01-25T08:17:42.148Z,37.80
2023-01-25T08:20:29.277Z,34.60
2023-01-25T08:23:16.082Z,36.00
2023-01-25T08:26:04.696Z,39.70
2023-01-25T08:28:53.903Z,39.90
2023-01-25T08:31:48.223Z,36.40
2023-01-25T08:34:35.241Z,35.00
2023-01-25T08:37:21.942Z,37.40
2023-01-25T08:40:10.120Z,39.40
2023-01-25T08:42:57.224Z,39.50
2023-01-25T08:51:22.189Z,32.30
2023-01-25T08:54:13.029Z,37.40
2023-01-25T08:57:01.918Z,39.40
2023-01-25T08:59:53.186Z,37.30
2023-01-25T09:02:40.400Z,37.50
2023-01-25T09:05:26.875Z,37.00
2023-01-25T09:08:14.068Z,35.00
2023-01-25T09:11:08.815Z,32.40
2023-01-25T09:13:57.358Z,37.90
2023-01-25T09:16:44.091Z,35.40
2023-01-25T09:19:31.600Z,37.40
2023-01-25T09:22:19.610Z,37.70
2023-01-25T09:28:11.514Z,37.90
2023-01-25T09:31:19.913Z,39.50
2023-01-25T09:34:08.756Z,39.80
2023-01-25T09:36:55.764Z,40.10
2023-01-25T09:39:43.587Z,37.40
2023-01-25T09:42:47.418Z,41.20
2023-01-25T09:45:37.289Z,37.10
2023-01-25T09:48:46.666Z,35.00
2023-01-25T09:51:54.090Z,35.30
2023-01-25T09:54:47.536Z,38.70
2023-01-25T09:57:38.813Z,36.00
2023-01-25T10:00:39.521Z,39.60
2023-01-25T10:03:35.104Z,36.60
2023-01-25T10:06:30.374Z,38.40
2023-01-25T10:09:43.115Z,37.00
2023-01-25T10:13:51.086Z,38.60
2023-01-25T10:16:51.991Z,40.80
2023-01-25T10:20:20.103Z,39.30
2023-01-25T10:23:30.232Z,39.20
2023-01-25T10:26:31.568Z,42.60
2023-01-25T10:29:27.018Z,42.10
2023-01-25T10:33:45.829Z,45.50
2023-01-25T10:36:35.028Z,42.30
2023-01-25T10:39:23.267Z,43.10
2023-01-25T10:42:18.144Z,44.10
2023-01-25T10:45:17.167Z,45.20
2023-01-25T10:48:14.030Z,43.40
2023-01-25T10:51:10.679Z,46.10
2023-01-25T10:54:05.870Z,44.60
2023-01-25T10:56:53.275Z,47.40
2023-01-25T10:59:41.294Z,45.10
2023-01-25T11:02:47.683Z,46.10
2023-01-25T11:05:39.507Z,43.70
2023-01-25T11:08:33.654Z,44.40
2023-01-25T11:11:26.915Z,45.70
2023-01-25T11:14:18.170Z,47.50
2023-01-25T11:17:06.626Z,45.30
2023-01-25T11:20:17.727Z,51.60
2023-01-25T11:23:20.912Z,42.60
2023-01-25T11:26:18.893Z,44.80
2023-01-25T11:29:17.785Z,46.20
2023-01-25T11:32:16.519Z,44.80
2023-01-25T11:35:03.786Z,46.40
2023-01-25T11:38:02.782Z,46.70
2023-01-25T11:41:34.866Z,48.20
2023-01-25T11:44:49.208Z,49.00
2023-01-25T11:47:56.852Z,54.70
2023-01-25T11:51:05.943Z,49.80
2023-01-25T11:54:31.677Z,50.30
2023-01-25T11:58:03.032Z,46.60
2023-01-25T12:01:40.191Z,45.40
2023-01-25T12:05:16.268Z,50.60
2023-01-25T12:08:57.898Z,52.20
2023-01-25T12:12:18.604Z,53.50
2023-01-25T12:15:27.694Z,47.50
2023-01-25T12:18:49.018Z,50.10
2023-01-25T12:21:49.868Z,48.00
2023-01-25T12:24:51.594Z,48.50
2023-01-25T12:27:49.196Z,52.20
2023-01-25T12:30:59.828Z,52.60
2023-01-25T12:33:56.571Z,52.10
2023-01-25T12:36:58.555Z,49.70
2023-01-25T12:40:12.206Z,49.50
2023-01-25T12:42:59.351Z,51.90
2023-01-25T12:45:47.183Z,52.70
2023-01-25T12:48:37.751Z,50.70
2023-01-25T12:51:27.366Z,50.40
2023-01-25T12:54:30.081Z,54.80
2023-01-25T12:57:29.042Z,50.30
2023-01-25T13:00:30.745Z,51.90
2023-01-25T13:03:30.089Z,51.30
2023-01-25T13:06:25.194Z,52.50
2023-01-25T13:09:17.172Z,52.20
2023-01-25T13:12:04.359Z,51.60
2023-01-25T13:14:52.968Z,49.00
2023-01-25T13:17:43.727Z,49.40
2023-01-25T13:20:41.225Z,50.20
2023-01-25T13:23:43.090Z,48.70
2023-01-25T13:26:29.881Z,49.90
2023-01-25T13:40:29.679Z,46.00
2023-01-25T13:43:21.411Z,50.50
2023-01-25T13:46:27.471Z,53.40
2023-01-25T13:49:26.563Z,51.30
2023-01-25T13:53:04.411Z,51.20
2023-01-25T13:55:53.665Z,52.50
2023-01-25T13:58:51.152Z,51.00
2023-01-25T14:01:36.585Z,52.40
2023-01-25T14:04:22.749Z,50.30
2023-01-25T14:07:17.244Z,51.10
2023-01-25T14:10:12.528Z,49.60
2023-01-25T14:13:00.682Z,51.10
2023-01-25T14:16:04.806Z,49.90
2023-01-25T14:18:50.466Z,50.80
2023-01-25T14:21:39.994Z,50.00
2023-01-25T14:24:27.902Z,50.40
2023-01-25T14:27:22.343Z,49.50
2023-01-25T14:30:18.705Z,50.20
2023-01-25T14:33:16.447Z,50.50
2023-01-25T14:38:43.176Z,48.90
2023-01-25T14:41:41.928Z,50.40
2023-01-25T14:44:30.800Z,52.50
2023-01-25T14:47:31.272Z,52.40
2023-01-25T14:50:40.617Z,54.30
2023-01-25T14:53:28.712Z,54.80
2023-01-25T14:56:45.675Z,53.40
2023-01-25T14:59:50.296Z,54.70
2023-01-25T15:20:03.214Z,48.20
2023-01-25T15:54:51.728Z,50.90
2023-01-25T15:58:02.171Z,46.10
2023-01-25T16:11:54.401Z,58.80
2023-01-25T16:14:41.441Z,49.90
2023-01-25T16:17:30.600Z,48.50
2023-01-25T16:20:21.519Z,55.70
2023-01-25T16:23:08.508Z,51.30
2023-01-25T16:25:55.136Z,48.90
2023-01-25T16:28:41.747Z,48.60
2023-01-25T16:31:32.941Z,48.90
2023-01-25T16:34:23.193Z,48.40
2023-01-25T16:37:17.244Z,49.70
2023-01-25T16:40:03.709Z,50.00
2023-01-25T16:42:51.846Z,47.90
2023-01-25T16:45:39.997Z,45.20
2023-01-25T16:48:26.410Z,49.30
2023-01-25T16:51:17.002Z,50.10
2023-01-25T16:54:07.424Z,50.00
2023-01-25T16:56:55.098Z,50.80
2023-01-25T16:59:41.531Z,51.60
2023-01-25T17:02:28.112Z,50.40
2023-01-25T17:06:02.051Z,47.30
2023-01-25T17:10:07.956Z,47.90
2023-01-25T17:14:37.999Z,46.50
2023-01-25T17:28:26.945Z,44.90
2023-01-25T17:31:27.107Z,45.80
2023-01-25T17:35:24.042Z,44.90
2023-01-25T17:38:10.433Z,49.60
2023-01-25T17:40:57.004Z,50.70
2023-01-25T17:43:43.886Z,51.40
2023-01-25T17:46:33.869Z,50.30
2023-01-25T18:27:31.566Z,46.40
2023-01-25T18:30:35.394Z,48.00
2023-01-25T18:33:21.952Z,50.50
2023-01-25T18:36:08.805Z,45.70
2023-01-25T18:38:55.610Z,48.30
2023-01-25T18:41:44.692Z,51.00
2023-01-25T18:48:47.560Z,47.00
2023-01-25T18:51:38.950Z,44.10
2023-01-25T18:54:31.399Z,45.60
2023-01-25T18:57:18.395Z,43.60
2023-01-25T19:00:07.128Z,44.10
2023-01-25T19:02:54.364Z,43.20
2023-01-25T19:05:40.913Z,40.00
2023-01-25T19:08:28.656Z,42.80
2023-01-25T19:11:17.924Z,43.70
2023-01-25T19:14:05.236Z,52.00
2023-01-25T19:16:51.909Z,50.20
2023-01-25T19:23:54.678Z,47.70
2023-01-25T19:26:41.721Z,43.90
2023-01-25T19:29:28.466Z,46.50
2023-01-25T19:32:15.226Z,46.20
2023-01-25T19:47:51.558Z,45.50
2023-01-25T19:50:54.009Z,42.80
2023-01-25T19:54:31.590Z,45.30
2023-01-25T19:58:10.625Z,45.60
2023-01-25T20:01:44.706Z,43.80
2023-01-25T20:05:58.638Z,47.20
2023-01-25T20:09:27.947Z,44.60
2023-01-25T20:12:15.237Z,38.40
2023-01-25T20:15:02.274Z,45.50
2023-01-25T20:17:49.999Z,41.10
2023-01-25T20:20:40.060Z,44.90
2023-01-25T20:23:27.807Z,41.40
2023-01-25T20:26:27.470Z,38.20
2023-01-25T20:30:44.247Z,39.20
2023-01-25T20:34:12.347Z,39.70
2023-01-25T20:37:41.603Z,40.60
2023-01-25T20:41:42.907Z,37.40
2023-01-25T20:45:21.505Z,40.60
2023-01-25T20:49:02.313Z,38.20
2023-01-25T21:16:51.718Z,41.80
2023-01-25T21:19:48.472Z,43.20
2023-01-25T21:23:45.433Z,39.90
2023-01-25T21:27:53.500Z,43.90
2023-01-25T21:47:36.212Z,44.70
2023-01-25T22:01:54.543Z,47.70
2023-01-25T22:33:21.538Z,46.20
2023-01-25T22:37:39.975Z,45.50
2023-01-25T22:51:12.670Z,51.40
2023-01-25T23:18:49.787Z,49.00
2023-01-25T23:21:47.310Z,48.90
2023-01-25T23:25:45.847Z,49.20
2023-01-25T23:29:44.756Z,46.90
2023-01-25T23:34:11.293Z,54.50
2023-01-25T23:38:16.000Z,50.40
2023-01-25T23:42:05.517Z,49.20
2023-01-25T23:45:25.153Z,51.30
2023-01-25T23:49:24.338Z,51.00
2023-01-25T23:53:01.408Z,50.90
2023-01-25T23:56:56.398Z,51.00
